Time;durP1;ratioP1;P1;durP2;ratioP2;P2;SDS_P1;SDS_P2;PMS_P1;PMS_P2;Temp;Humidity;BMP_temperature;BMP_pressure;BME280_temperature;BME280_humidity;BME280_pressure;Samples;Min_cycle;Max_cycle;Signal;HPM_P1;HPM_P2
2023/10/01 00:00:11;;;;;;;6.93;1.75;;;;;;;16.10;100.00;100213.91;5063918;28;20469;-89
2023/10/01 00:02:38;;;;;;;6.50;1.35;;;;;;;16.10;100.00;100202.44;5060078;28;20454;-85
2023/10/01 00:05:06;;;;;;;3.05;1.00;;;;;;;16.13;100.00;100191.41;5077977;28;20111;-86
2023/10/01 00:07:37;;;;;;;5.97;1.17;;;;;;;16.12;100.00;100189.72;5053249;28;20101;-85
2023/10/01 00:10:10;;;;;;;2.15;0.82;;;;;;;16.13;100.00;100207.41;5079248;28;20064;-85
2023/10/01 00:12:40;;;;;;;6.18;1.20;;;;;;;16.11;100.00;100212.91;5053577;28;20471;-85
2023/10/01 00:15:10;;;;;;;6.10;1.42;;;;;;;16.14;100.00;100216.19;5067381;28;20038;-85
2023/10/01 00:17:39;;;;;;;4.18;1.05;;;;;;;16.17;100.00;100218.50;5046384;28;20056;-89
2023/10/01 00:20:14;;;;;;;5.18;1.30;;;;;;;16.16;100.00;100225.69;5042815;28;20433;-89
2023/10/01 00:22:40;;;;;;;;;;;;;;;16.13;100.00;100218.06;5061391;28;20546;-89
2023/10/01 00:25:07;;;;;;;4.78;1.60;;;;;;;16.12;100.00;100216.41;5050384;28;19924;-88
2023/10/01 00:27:32;;;;;;;5.90;1.20;;;;;;;16.12;100.00;100219.06;5040881;28;20397;-85
2023/10/01 00:29:58;;;;;;;3.75;1.10;;;;;;;16.12;100.00;100211.91;5033864;28;20045;-85
2023/10/01 00:32:27;;;;;;;5.47;1.48;;;;;;;16.12;100.00;100222.56;5016109;28;20037;-85
2023/10/01 00:34:57;;;;;;;4.20;1.05;;;;;;;16.16;100.00;100239.03;4996481;28;20041;-85
2023/10/01 00:37:24;;;;;;;6.05;1.83;;;;;;;16.15;100.00;100247.22;5036923;28;20093;-85
2023/10/01 00:39:54;;;;;;;5.50;1.45;;;;;;;16.17;100.00;100232.66;5043193;28;20033;-85
2023/10/01 00:42:24;;;;;;;5.63;1.35;;;;;;;16.21;100.00;100246.47;5049949;28;20076;-85
2023/10/01 00:44:50;;;;;;;4.20;1.23;;;;;;;16.19;100.00;100246.66;5015233;28;20065;-86
2023/10/01 00:47:16;;;;;;;4.38;0.98;;;;;;;16.14;100.00;100224.19;5014153;28;20068;-86
2023/10/01 00:49:47;;;;;;;4.40;1.10;;;;;;;16.17;100.00;100234.50;5012137;28;20099;-86
2023/10/01 00:52:20;;;;;;;4.78;1.50;;;;;;;16.14;100.00;100257.03;5031302;28;20051;-85
2023/10/01 00:54:47;;;;;;;5.35;1.52;;;;;;;16.11;100.00;100228.09;5040544;28;20032;-86
2023/10/01 00:57:16;;;;;;;4.15;1.52;;;;;;;16.14;100.00;100235.69;5013797;28;20037;-87
2023/10/01 00:59:45;;;;;;;5.53;1.60;;;;;;;16.10;100.00;100245.91;5035035;28;20040;-86
2023/10/01 01:02:15;;;;;;;8.25;1.50;;;;;;;16.11;100.00;100230.75;5014603;28;20045;-87
2023/10/01 01:04:45;;;;;;;4.03;1.40;;;;;;;16.07;100.00;100216.94;5028379;28;20516;-86
2023/10/01 01:07:21;;;;;;;4.32;1.25;;;;;;;16.05;100.00;100212.84;5013781;28;20057;-87
2023/10/01 01:09:48;;;;;;;3.33;1.48;;;;;;;15.99;100.00;100209.06;5031111;28;20033;-86
2023/10/01 01:12:15;;;;;;;5.95;1.65;;;;;;;15.97;100.00;100205.75;5006444;28;20033;-89
2023/10/01 01:14:44;;;;;;;8.50;1.77;;;;;;;15.97;100.00;100209.25;5010844;28;20029;-89
2023/10/01 01:17:14;;;;;;;5.47;1.55;;;;;;;15.99;100.00;100219.72;5007413;28;20094;-86
2023/10/01 01:19:42;;;;;;;4.63;1.08;;;;;;;15.92;100.00;100226.78;4997726;28;20037;-86
2023/10/01 01:22:15;;;;;;;6.60;1.65;;;;;;;15.90;100.00;100226.97;5026754;28;20393;-86
2023/10/01 01:24:40;;;;;;;3.10;1.30;;;;;;;15.90;100.00;100237.63;5047111;28;20106;-86
2023/10/01 01:27:06;;;;;;;3.92;1.30;;;;;;;15.90;100.00;100240.28;5027674;28;20036;-90
2023/10/01 01:29:40;;;;;;;3.33;1.10;;;;;;;15.92;100.00;100232.13;5028358;28;20037;-89
2023/10/01 01:32:13;;;;;;;3.42;1.08;;;;;;;15.93;100.00;100231.94;5036946;28;20037;-86
2023/10/01 01:34:52;;;;;;;5.40;1.75;;;;;;;15.93;100.00;100226.59;5028390;28;20037;-85
2023/10/01 01:38:04;;;;;;;4.70;1.25;;;;;;;15.94;100.00;100238.09;5041306;28;20767;-85
2023/10/01 01:40:23;;;;;;;;;;;;;;;15.92;100.00;100240.94;5047375;28;20071;-86
2023/10/01 01:42:56;;;;;;;7.40;1.73;;;;;;;15.92;100.00;100229.44;5059705;28;19912;-86
2023/10/01 01:45:27;;;;;;;3.92;1.35;;;;;;;15.92;100.00;100227.63;5025362;28;20029;-86
2023/10/01 01:47:53;;;;;;;3.38;1.33;;;;;;;15.88;100.00;100231.66;5034252;28;20490;-86
2023/10/01 01:50:27;;;;;;;4.53;1.70;;;;;;;15.90;100.00;100237.63;5051487;28;20036;-86
2023/10/01 01:52:58;;;;;;;4.25;1.60;;;;;;;15.89;100.00;100233.31;5053957;28;20565;-86
2023/10/01 01:55:28;;;;;;;3.13;1.50;;;;;;;15.86;100.00;100234.50;5048158;28;20127;-86
2023/10/01 01:58:10;;;;;;;4.53;1.45;;;;;;;15.84;100.00;100236.53;5050469;28;20040;-87
2023/10/01 02:00:38;;;;;;;9.25;1.65;;;;;;;15.80;100.00;100232.56;5028391;28;20051;-86
2023/10/01 02:03:10;;;;;;;3.97;1.40;;;;;;;15.74;100.00;100231.47;5053278;28;20032;-86
2023/10/01 02:05:47;;;;;;;4.90;1.60;;;;;;;15.77;100.00;100240.94;5057947;28;20405;-86
2023/10/01 02:08:24;;;;;;;4.18;1.45;;;;;;;15.68;100.00;100228.72;5064071;28;20029;-86
2023/10/01 02:10:52;;;;;;;5.82;1.65;;;;;;;15.63;100.00;100232.78;5050700;28;20047;-86
2023/10/01 02:13:18;;;;;;;4.35;1.33;;;;;;;15.61;100.00;100240.09;5032620;28;20496;-86
2023/10/01 02:15:47;;;;;;;4.82;1.50;;;;;;;15.63;100.00;100234.59;5047217;28;20036;-86
2023/10/01 02:18:17;;;;;;;4.55;1.17;;;;;;;15.60;100.00;100233.13;5048950;28;20129;-86
2023/10/01 02:20:56;;;;;;;4.45;1.35;;;;;;;15.62;100.00;100244.41;5060405;28;20477;-87
2023/10/01 02:23:33;;;;;;;3.17;1.48;;;;;;;15.57;100.00;100236.16;5055946;28;20481;-86
2023/10/01 02:26:00;;;;;;;4.55;1.35;;;;;;;15.56;100.00;100234.50;5033944;28;20159;-86
2023/10/01 02:28:32;;;;;;;7.03;1.50;;;;;;;15.58;100.00;100243.13;5034018;28;20064;-86
2023/10/01 02:31:00;;;;;;;3.08;0.90;;;;;;;15.60;100.00;100234.97;5054981;28;20024;-87
2023/10/01 02:36:12;;;;;;;4.25;0.95;;;;;;;15.59;100.00;100234.13;5070397;28;20032;-86
2023/10/01 02:38:45;;;;;;;3.22;1.00;;;;;;;15.63;100.00;100224.78;5070395;28;20128;-86
2023/10/01 02:41:15;;;;;;;6.35;1.20;;;;;;;15.64;100.00;100222.91;5038219;28;20089;-89
2023/10/01 02:43:41;;;;;;;4.55;0.98;;;;;;;15.65;100.00;100221.09;5067756;28;20035;-90
2023/10/01 02:46:12;;;;;;;3.60;1.00;;;;;;;15.68;100.00;100220.72;5052702;28;20074;-89
2023/10/01 02:48:42;;;;;;;3.42;1.00;;;;;;;15.66;100.00;100222.72;5056211;28;20043;-89
2023/10/01 02:51:14;;;;;;;3.67;1.27;;;;;;;15.68;100.00;100226.06;5075180;28;20476;-89
2023/10/01 02:54:05;;;;;;;5.97;1.40;;;;;;;15.71;100.00;100217.69;5047288;28;20115;-89
2023/10/01 02:56:37;;;;;;;3.20;0.90;;;;;;;15.68;100.00;100218.91;5053368;28;20031;-87
2023/10/01 02:59:13;;;;;;;4.55;1.27;;;;;;;15.69;100.00;100219.69;5056350;28;20084;-86
2023/10/01 03:01:47;;;;;;;1.25;1.00;;;;;;;15.69;100.00;100222.38;5057691;28;20531;-86
2023/10/01 03:04:16;;;;;;;3.25;1.10;;;;;;;15.73;100.00;100223.69;5062113;28;20075;-86
2023/10/01 03:06:52;;;;;;;3.75;1.10;;;;;;;15.72;100.00;100220.16;5070211;28;20036;-90
2023/10/01 03:09:34;;;;;;;4.05;1.23;;;;;;;15.70;100.00;100216.03;5055958;28;20059;-89
2023/10/01 03:15:17;;;;;;;3.42;1.10;;;;;;;15.65;100.00;100219.25;5085471;28;20055;-86
2023/10/01 03:23:27;;;;;;;;;;;;;;;15.58;100.00;100226.31;5052143;28;19913;-86
2023/10/01 03:26:03;;;;;;;3.42;1.00;;;;;;;15.62;100.00;100230.28;5047382;28;20053;-86
2023/10/01 03:31:22;;;;;;;3.50;1.25;;;;;;;15.58;100.00;100231.66;5070408;28;20035;-90
2023/10/01 03:33:53;;;;;;;4.93;1.30;;;;;;;15.56;100.00;100239.00;5059894;28;20047;-91
2023/10/01 03:36:32;;;;;;;3.53;1.10;;;;;;;15.59;100.00;100241.31;5085446;28;20396;-86
2023/10/01 03:47:27;;;;;;;2.53;0.95;;;;;;;15.58;100.00;100237.81;5061578;28;20028;-86
2023/10/01 03:49:57;;;;;;;5.15;1.35;;;;;;;15.61;100.00;100242.78;5069238;28;20046;-85
2023/10/01 03:52:28;;;;;;;2.45;1.17;;;;;;;15.59;100.00;100242.13;5075648;28;20028;-86
2023/10/01 03:57:52;;;;;;;2.65;1.10;;;;;;;15.62;100.00;100244.41;5074851;28;20040;-86
2023/10/01 04:00:28;;;;;;;2.45;1.23;;;;;;;15.57;100.00;100240.66;5056116;28;20373;-86
2023/10/01 04:02:54;;;;;;;3.60;1.30;;;;;;;15.54;100.00;100235.69;5058410;28;20032;-86
2023/10/01 04:05:30;;;;;;;4.60;1.65;;;;;;;15.55;100.00;100248.84;5054741;28;20032;-86
2023/10/01 04:08:06;;;;;;;4.90;1.50;;;;;;;15.57;100.00;100252.16;5057363;28;20036;-85
2023/10/01 04:10:34;;;;;;;4.35;1.45;;;;;;;15.54;100.00;100249.00;5072615;28;20035;-86
2023/10/01 04:13:20;;;;;;;4.28;1.20;;;;;;;15.51;100.00;100247.56;5062913;28;20036;-89
2023/10/01 04:15:49;;;;;;;6.47;1.65;;;;;;;15.54;100.00;100259.66;5068974;28;20024;-89
2023/10/01 04:20:48;;;;;;;3.55;1.60;;;;;;;15.49;100.00;100260.22;5055165;28;20045;-86
2023/10/01 04:23:54;;;;;;;3.38;1.58;;;;;;;15.54;100.00;100262.34;5067173;28;20066;-90
2023/10/01 04:26:16;;;;;;;4.13;1.45;;;;;;;15.48;100.00;100266.56;5049137;28;20499;-90
2023/10/01 04:28:47;;;;;;;9.63;1.90;;;;;;;15.50;100.00;100269.84;5039913;28;20145;-90
2023/10/01 04:31:19;;;;;;;4.65;1.63;;;;;;;15.50;100.00;100268.03;5086770;28;20713;-86
2023/10/01 04:33:48;;;;;;;3.20;1.55;;;;;;;15.52;100.00;100272.34;5053815;28;20089;-86
2023/10/01 04:36:19;;;;;;;7.32;2.30;;;;;;;15.47;100.00;100276.38;5059708;28;20032;-89
2023/10/01 04:38:51;;;;;;;4.85;2.00;;;;;;;15.44;100.00;100265.25;5042978;28;20089;-90
2023/10/01 04:41:18;;;;;;;9.38;1.88;;;;;;;15.43;100.00;100271.59;5065601;28;20028;-86
2023/10/01 04:46:45;;;;;;;4.82;2.10;;;;;;;15.40;100.00;100274.63;5013643;28;20384;-86
2023/10/01 04:49:27;;;;;;;8.57;2.30;;;;;;;15.38;100.00;100272.94;5056915;28;20038;-86
2023/10/01 04:51:58;;;;;;;4.90;2.40;;;;;;;15.41;100.00;100271.78;5050707;28;20503;-86
2023/10/01 04:54:26;;;;;;;4.53;2.20;;;;;;;15.37;100.00;100273.13;5048612;28;20031;-86
2023/10/01 04:56:52;;;;;;;4.97;2.30;;;;;;;15.38;100.00;100272.13;5046817;28;20118;-90
2023/10/01 04:59:21;;;;;;;8.48;1.98;;;;;;;15.34;100.00;100273.50;5072339;28;20036;-88
2023/10/01 05:01:56;;;;;;;8.55;2.10;;;;;;;15.31;100.00;100277.34;5067660;28;20081;-86
2023/10/01 05:04:27;;;;;;;3.78;1.85;;;;;;;15.29;100.00;100287.34;5066255;28;20028;-86
2023/10/01 05:07:14;;;;;;;6.43;1.95;;;;;;;15.24;100.00;100293.22;5070344;28;20028;-86
2023/10/01 05:09:43;;;;;;;3.83;2.17;;;;;;;15.20;100.00;100283.94;5029911;28;20123;-86
2023/10/01 05:12:11;;;;;;;7.18;2.50;;;;;;;15.20;100.00;100288.41;5055760;28;20142;-86
2023/10/01 05:14:56;;;;;;;9.05;2.53;;;;;;;15.18;100.00;100291.25;5071332;28;20028;-86
2023/10/01 05:17:22;;;;;;;9.30;2.25;;;;;;;15.17;100.00;100297.59;5071229;28;20033;-86
2023/10/01 05:19:47;;;;;;;6.43;2.38;;;;;;;15.16;100.00;100295.94;5056824;28;20035;-86
2023/10/01 05:22:13;;;;;;;9.25;2.40;;;;;;;15.16;100.00;100303.09;5057573;28;20048;-89
2023/10/01 05:24:41;;;;;;;7.43;2.58;;;;;;;15.13;100.00;100294.47;5073137;28;20036;-89
2023/10/01 05:27:18;;;;;;;7.32;2.70;;;;;;;15.15;100.00;100296.09;5087500;28;20076;-89
2023/10/01 05:29:45;;;;;;;6.95;2.45;;;;;;;15.15;100.00;100296.94;5071579;28;20032;-89
2023/10/01 05:32:18;;;;;;;8.18;2.42;;;;;;;15.19;100.00;100306.25;5050264;28;20392;-89
2023/10/01 05:34:47;;;;;;;10.23;3.22;;;;;;;15.15;100.00;100309.41;5045484;28;20492;-89
2023/10/01 05:37:20;;;;;;;12.38;2.63;;;;;;;15.15;100.00;100318.25;5059372;28;20035;-90
2023/10/01 05:39:57;;;;;;;6.65;2.45;;;;;;;15.15;100.00;100312.91;5048417;28;20075;-89
2023/10/01 05:42:28;;;;;;;11.77;3.20;;;;;;;15.17;100.00;100320.72;5065364;28;20052;-86
2023/10/01 05:44:56;;;;;;;8.85;2.40;;;;;;;15.09;100.00;100325.13;5038611;28;20071;-86
2023/10/01 05:47:22;;;;;;;8.48;2.83;;;;;;;15.10;100.00;100323.25;5059898;28;20036;-86
2023/10/01 05:49:53;;;;;;;9.15;2.90;;;;;;;15.11;100.00;100328.41;5069457;28;20036;-86
2023/10/01 05:52:20;;;;;;;8.85;2.72;;;;;;;15.08;100.00;100323.44;5088655;28;20028;-86
2023/10/01 05:54:52;;;;;;;7.10;2.70;;;;;;;15.09;100.00;100322.47;5064737;28;20028;-86
2023/10/01 05:57:21;;;;;;;6.10;2.63;;;;;;;15.13;100.00;100322.91;5039317;28;20687;-87
2023/10/01 05:59:56;;;;;;;9.43;2.45;;;;;;;15.14;100.00;100327.25;5033312;28;20377;-86
2023/10/01 06:02:41;;;;;;;;;;;;;;;15.07;100.00;100319.13;5066891;28;20044;-90
2023/10/01 06:07:55;;;;;;;6.80;2.63;;;;;;;15.00;100.00;100327.00;5045718;28;20138;-86
2023/10/01 06:10:35;;;;;;;7.95;2.22;;;;;;;14.92;100.00;100329.72;5053175;28;20115;-86
2023/10/01 06:13:06;;;;;;;5.72;1.98;;;;;;;14.88;100.00;100328.41;5071210;28;20176;-90
2023/10/01 06:15:33;;;;;;;8.35;1.70;;;;;;;14.72;100.00;100330.13;5050892;28;20420;-89
2023/10/01 06:18:05;;;;;;;6.60;2.25;;;;;;;14.69;100.00;100337.63;5064700;28;20153;-86
2023/10/01 06:20:33;;;;;;;5.72;2.33;;;;;;;14.63;100.00;100340.00;5063703;28;20683;-86
2023/10/01 06:22:59;;;;;;;7.93;2.65;;;;;;;14.60;100.00;100350.97;5051045;28;20030;-90
2023/10/01 06:25:40;;;;;;;5.68;2.13;;;;;;;14.62;100.00;100354.28;5069272;28;20036;-90
2023/10/01 06:28:09;;;;;;;9.68;2.33;;;;;;;14.59;100.00;100357.28;5059405;28;20051;-86
2023/10/01 06:30:40;;;;;;;6.82;2.80;;;;;;;14.58;100.00;100354.81;5094700;28;20039;-86
2023/10/01 06:33:24;;;;;;;7.72;2.40;;;;;;;14.56;100.00;100362.94;5071481;28;20047;-86
2023/10/01 06:38:39;;;;;;;16.00;3.00;;;;;;;14.48;100.00;100379.78;5062309;28;20039;-89
2023/10/01 06:41:09;;;;;;;4.75;2.05;;;;;;;14.53;100.00;100368.63;5052427;28;20040;-86
2023/10/01 06:43:44;;;;;;;7.25;2.20;;;;;;;14.55;100.00;100379.09;5066931;28;20032;-86
2023/10/01 06:46:13;;;;;;;5.82;2.03;;;;;;;14.52;100.00;100366.97;5043521;28;20033;-90
2023/10/01 06:48:39;;;;;;;6.82;2.10;;;;;;;14.48;100.00;100377.13;5038128;28;20135;-89
2023/10/01 06:51:06;;;;;;;26.63;2.20;;;;;;;14.48;100.00;100373.63;5074347;28;20423;-90
2023/10/01 06:53:45;;;;;;;16.88;1.90;;;;;;;14.42;100.00;100371.66;5039879;28;20435;-90
2023/10/01 06:56:15;;;;;;;7.10;2.22;;;;;;;14.38;100.00;100374.66;5051500;28;20373;-88
2023/10/01 06:58:41;;;;;;;8.88;2.40;;;;;;;14.36;100.00;100375.84;5072434;28;20036;-89
2023/10/01 07:01:34;;;;;;;9.85;2.80;;;;;;;14.29;100.00;100381.00;5090345;28;20153;-86
2023/10/01 07:03:54;;;;;;;6.10;2.70;;;;;;;14.24;100.00;100375.34;5050573;28;20448;-87
2023/10/01 07:06:21;;;;;;;11.18;3.33;;;;;;;14.25;100.00;100374.38;5077827;28;21437;-86
2023/10/01 07:08:47;;;;;;;8.38;2.75;;;;;;;14.30;100.00;100377.31;5039564;28;20035;-86
2023/10/01 07:11:18;;;;;;;6.70;2.78;;;;;;;14.36;100.00;100381.16;5031467;28;20125;-86
2023/10/01 07:13:44;;;;;;;13.68;3.42;;;;;;;14.42;100.00;100390.25;5036624;28;20043;-86
2023/10/01 07:16:10;;;;;;;9.10;3.50;;;;;;;14.51;100.00;100394.53;5066793;28;20480;-90
2023/10/01 07:18:38;;;;;;;8.77;2.95;;;;;;;14.59;100.00;100393.69;5031756;28;20032;-89
2023/10/01 07:21:09;;;;;;;13.70;3.45;;;;;;;14.69;100.00;100391.66;5060609;28;20097;-86
2023/10/01 07:23:35;;;;;;;11.52;3.08;;;;;;;14.70;100.00;100392.50;5072090;28;20035;-86
2023/10/01 07:26:01;;;;;;;8.25;3.20;;;;;;;14.69;100.00;100404.13;5065052;28;20035;-86
2023/10/01 07:28:27;;;;;;;11.85;3.53;;;;;;;14.71;100.00;100410.13;5057029;28;20036;-86
2023/10/01 07:30:56;;;;;;;11.60;5.30;;;;;;;14.76;100.00;100407.78;5061352;28;20050;-86
2023/10/01 07:33:22;;;;;;;8.80;4.05;;;;;;;14.76;100.00;100405.91;5056935;28;20681;-87
2023/10/01 07:36:01;;;;;;;12.43;3.95;;;;;;;14.83;100.00;100416.75;5054133;28;20103;-86
2023/10/01 07:38:29;;;;;;;15.60;6.93;;;;;;;14.84;100.00;100421.06;5068373;28;20028;-86
2023/10/01 07:40:57;;;;;;;18.15;8.25;;;;;;;14.86;100.00;100418.22;5067205;28;20028;-86
2023/10/01 07:43:27;;;;;;;18.13;7.97;;;;;;;14.98;100.00;100429.31;5049027;28;20070;-86
2023/10/01 07:45:58;;;;;;;21.10;7.60;;;;;;;14.96;100.00;100434.81;5050376;28;20036;-86
2023/10/01 07:48:27;;;;;;;20.55;9.88;;;;;;;15.05;100.00;100429.47;5045710;28;20111;-90
2023/10/01 07:50:55;;;;;;;19.42;9.82;;;;;;;15.08;100.00;100434.44;5051652;28;20037;-90
2023/10/01 07:53:32;;;;;;;47.17;26.67;;;;;;;15.16;100.00;100434.38;5084688;28;20075;-86
2023/10/01 07:56:03;;;;;;;18.67;9.50;;;;;;;15.20;100.00;100433.03;5051170;28;20484;-86
2023/10/01 07:58:44;;;;;;;29.13;12.20;;;;;;;15.20;100.00;100430.38;5032681;28;20558;-86
2023/10/01 08:03:56;;;;;;;15.18;5.32;;;;;;;15.21;100.00;100429.34;5051874;28;20032;-86
2023/10/01 08:06:29;;;;;;;14.50;4.78;;;;;;;15.26;100.00;100436.81;5084790;28;20073;-86
2023/10/01 08:08:59;;;;;;;13.40;4.53;;;;;;;15.32;100.00;100438.78;5036812;28;20077;-86
2023/10/01 08:14:16;;;;;;;15.45;7.55;;;;;;;15.29;100.00;100449.78;5064989;28;20672;-89
2023/10/01 08:16:47;;;;;;;22.52;10.18;;;;;;;15.30;100.00;100447.94;5052627;28;20447;-86
2023/10/01 08:19:23;;;;;;;19.35;8.95;;;;;;;15.41;100.00;100455.53;5072702;28;20036;-86
2023/10/01 08:21:50;;;;;;;58.05;32.13;;;;;;;15.43;100.00;100450.03;5086563;28;20056;-86
2023/10/01 08:24:20;;;;;;;46.70;26.13;;;;;;;15.53;100.00;100463.13;5041508;28;20395;-87
2023/10/01 08:27:12;;;;;;;41.60;24.90;;;;;;;15.53;100.00;100469.28;5029722;28;20041;-85
2023/10/01 08:32:23;;;;;;;40.97;25.33;;;;;;;15.57;100.00;100467.94;5079257;28;20028;-86
2023/10/01 08:37:31;;;;;;;43.08;27.27;;;;;;;15.70;100.00;100471.84;5060166;28;20631;-86
2023/10/01 08:40:00;;;;;;;33.55;22.10;;;;;;;15.78;100.00;100466.47;5057535;28;20464;-86
2023/10/01 08:42:29;;;;;;;38.20;24.52;;;;;;;15.74;100.00;100471.31;5070473;28;20036;-86
2023/10/01 08:45:06;;;;;;;22.38;8.13;;;;;;;15.75;100.00;100482.81;5080163;28;20031;-86
2023/10/01 08:47:37;;;;;;;36.33;20.30;;;;;;;15.79;100.00;100486.75;5072080;28;20040;-86
2023/10/01 08:50:26;;;;;;;41.22;27.20;;;;;;;15.86;100.00;100486.88;5058412;28;20081;-87
2023/10/01 08:52:57;;;;;;;34.20;18.08;;;;;;;15.92;100.00;100485.31;5037901;28;20481;-87
2023/10/01 08:56:04;;;;;;;72.25;37.55;;;;;;;15.99;100.00;100487.13;5041482;28;20132;-86
2023/10/01 08:58:28;;;;;;;31.40;11.73;;;;;;;16.02;100.00;100487.78;5057574;28;20043;-87
2023/10/01 09:01:14;;;;;;;25.88;8.95;;;;;;;16.01;100.00;100492.28;5083923;28;20104;-86
2023/10/01 09:03:47;;;;;;;20.52;6.47;;;;;;;16.04;100.00;100491.09;5054670;28;20198;-87
2023/10/01 09:06:24;;;;;;;23.05;9.68;;;;;;;16.05;100.00;100490.94;5058468;28;20032;-86
2023/10/01 09:08:55;;;;;;;22.13;10.85;;;;;;;16.03;100.00;100492.09;5055942;28;20373;-87
2023/10/01 09:11:43;;;;;;;25.58;10.75;;;;;;;16.09;100.00;100489.56;5052568;28;20064;-90
2023/10/01 09:14:15;;;;;;;16.02;5.85;;;;;;;16.06;100.00;100489.91;5045803;28;20107;-90
2023/10/01 09:16:45;;;;;;;27.85;10.45;;;;;;;16.10;100.00;100499.19;5067139;28;20031;-90
2023/10/01 09:19:31;;;;;;;36.13;18.83;;;;;;;16.11;100.00;100502.69;5048791;28;20032;-90
2023/10/01 09:22:07;;;;;;;23.95;9.35;;;;;;;16.10;100.00;100498.38;5052521;28;20032;-86
2023/10/01 09:24:34;;;;;;;34.75;18.55;;;;;;;16.11;100.00;100508.88;5051140;28;20419;-86
2023/10/01 09:27:09;;;;;;;27.70;13.68;;;;;;;16.21;100.00;100510.47;5066008;28;20056;-90
2023/10/01 09:29:43;;;;;;;33.38;18.45;;;;;;;16.27;100.00;100500.91;5022440;28;20043;-90
2023/10/01 09:32:13;;;;;;;33.75;17.40;;;;;;;16.34;100.00;100507.19;5041856;28;20029;-86
2023/10/01 09:34:53;;;;;;;29.90;17.30;;;;;;;16.43;100.00;100515.91;5068850;28;20510;-86
2023/10/01 09:37:35;;;;;;;25.38;12.32;;;;;;;16.48;100.00;100511.69;5018577;28;20037;-86
2023/10/01 09:40:25;;;;;;;18.00;6.93;;;;;;;16.56;100.00;100509.97;5042317;28;20912;-86
2023/10/01 09:42:57;;;;;;;19.65;5.78;;;;;;;16.54;100.00;100507.47;5048946;28;20028;-90
2023/10/01 09:45:38;;;;;;;21.52;7.18;;;;;;;16.60;100.00;100508.56;5036243;28;20032;-90
2023/10/01 09:48:07;;;;;;;40.35;21.17;;;;;;;16.59;100.00;100509.59;5024537;28;20051;-86
2023/10/01 09:50:44;;;;;;;29.00;11.73;;;;;;;16.66;100.00;100505.19;5032451;28;20069;-86
2023/10/01 09:53:17;;;;;;;22.08;7.13;;;;;;;16.66;100.00;100504.38;5025869;28;20039;-86
2023/10/01 09:55:49;;;;;;;26.80;7.85;;;;;;;16.66;100.00;100505.19;5045970;28;20435;-86
2023/10/01 09:58:27;;;;;;;22.63;6.00;;;;;;;16.73;100.00;100507.94;5034055;28;20029;-86
2023/10/01 10:00:55;;;;;;;22.17;5.30;;;;;;;16.72;100.00;100511.63;4987097;28;20366;-86
2023/10/01 10:03:21;;;;;;;17.65;5.03;;;;;;;16.70;100.00;100511.81;5046773;28;20029;-86
2023/10/01 10:05:48;;;;;;;17.45;5.72;;;;;;;16.75;100.00;100508.59;5027724;28;20037;-86
2023/10/01 10:08:20;;;;;;;20.60;5.20;;;;;;;16.95;100.00;100508.88;5045339;28;20044;-89
2023/10/01 10:10:52;;;;;;;20.73;5.07;;;;;;;17.12;100.00;100511.34;5053088;28;20029;-89
2023/10/01 10:13:46;;;;;;;21.20;4.95;;;;;;;17.37;100.00;100513.72;5026103;28;20087;-86
2023/10/01 10:16:32;;;;;;;23.00;5.72;;;;;;;17.49;100.00;100519.38;5038063;28;20103;-85
2023/10/01 10:19:23;;;;;;;27.13;5.75;;;;;;;17.53;100.00;100522.53;5017051;28;20139;-85
2023/10/01 10:24:35;;;;;;;25.15;5.13;;;;;;;17.41;100.00;100516.81;5023862;28;20046;-86
2023/10/01 10:27:08;;;;;;;20.17;4.70;;;;;;;17.43;100.00;100526.31;5055557;28;20106;-87
2023/10/01 10:29:46;;;;;;;24.63;5.82;;;;;;;17.33;100.00;100517.75;5055186;28;20039;-86
2023/10/01 10:32:24;;;;;;;25.73;5.40;;;;;;;17.23;100.00;100518.88;5049264;28;20059;-87
2023/10/01 10:35:04;;;;;;;23.08;4.47;;;;;;;17.11;100.00;100520.38;5030305;28;20028;-86
2023/10/01 10:37:35;;;;;;;19.27;4.65;;;;;;;17.04;100.00;100519.47;5046946;28;20102;-87
2023/10/01 10:43:04;;;;;;;22.52;4.72;;;;;;;16.82;100.00;100522.84;5046457;28;20062;-86
2023/10/01 10:45:43;;;;;;;27.05;5.20;;;;;;;16.76;100.00;100526.25;5064377;28;20070;-87
2023/10/01 10:48:10;;;;;;;23.75;4.78;;;;;;;16.73;100.00;100526.63;5075021;28;20071;-91
2023/10/01 10:50:46;;;;;;;21.88;4.57;;;;;;;16.72;100.00;100523.13;5048450;28;20388;-90
2023/10/01 10:53:18;;;;;;;20.70;3.90;;;;;;;16.64;100.00;100525.91;5045613;28;20033;-86
2023/10/01 10:56:05;;;;;;;17.73;4.72;;;;;;;16.71;100.00;100516.13;5014391;28;20036;-86
2023/10/01 10:58:37;;;;;;;23.60;4.55;;;;;;;16.64;100.00;100525.06;5043735;28;20560;-87
2023/10/01 11:01:16;;;;;;;18.15;3.63;;;;;;;16.66;100.00;100536.38;5034801;28;20389;-87
2023/10/01 11:03:48;;;;;;;25.27;4.63;;;;;;;16.68;100.00;100526.34;5043722;28;20040;-87
2023/10/01 11:06:21;;;;;;;16.25;3.95;;;;;;;16.71;100.00;100536.66;5062332;28;20071;-90
2023/10/01 11:08:52;;;;;;;16.92;4.63;;;;;;;16.74;100.00;100541.63;5033940;28;20041;-90
2023/10/01 11:11:22;;;;;;;17.88;3.85;;;;;;;16.81;100.00;100539.91;5035499;28;20028;-86
2023/10/01 11:13:59;;;;;;;23.33;4.30;;;;;;;16.71;100.00;100534.81;5044745;28;20619;-86
2023/10/01 11:16:38;;;;;;;19.63;4.03;;;;;;;16.71;100.00;100542.00;5045469;28;20028;-86
2023/10/01 11:19:12;;;;;;;15.48;4.05;;;;;;;16.65;100.00;100535.56;5042272;28;20036;-86
2023/10/01 11:22:00;;;;;;;21.10;4.77;;;;;;;16.77;100.00;100530.56;5016942;28;20060;-90
2023/10/01 11:24:31;;;;;;;19.35;3.83;;;;;;;16.95;100.00;100545.41;5025311;28;20864;-90
2023/10/01 11:27:25;;;;;;;18.00;3.88;;;;;;;17.08;100.00;100542.13;5042685;28;20056;-90
2023/10/01 11:30:24;;;;;;;15.30;3.60;;;;;;;17.20;100.00;100535.28;5044703;28;20033;-91
2023/10/01 11:35:36;;;;;;;14.75;3.40;;;;;;;17.21;100.00;100534.28;5048854;28;20044;-90
2023/10/01 11:38:13;;;;;;;25.40;4.40;;;;;;;17.29;100.00;100540.53;5016131;28;20040;-86
2023/10/01 11:43:27;;;;;;;17.67;4.07;;;;;;;17.47;100.00;100546.31;5064265;28;20028;-89
2023/10/01 11:51:54;;;;;;;18.67;3.83;;;;;;;17.90;100.00;100533.19;5053238;28;20036;-91
2023/10/01 11:54:22;;;;;;;15.73;3.75;;;;;;;18.00;100.00;100536.34;5018859;28;20094;-90
2023/10/01 11:57:51;;;;;;;14.55;3.65;;;;;;;18.08;100.00;100544.25;5046297;28;20103;-90
2023/10/01 11:59:46;;;;;;;22.70;3.88;;;;;;;18.13;100.00;100538.34;5056168;28;20622;-91
2023/10/01 12:02:18;;;;;;;17.63;3.72;;;;;;;18.22;100.00;100549.75;5030454;28;20044;-86
2023/10/01 12:04:44;;;;;;;15.68;3.67;;;;;;;18.25;100.00;100543.19;5007930;28;20094;-85
2023/10/01 12:07:18;;;;;;;23.88;4.68;;;;;;;18.42;100.00;100533.88;5052413;28;20036;-85
2023/10/01 12:09:54;;;;;;;13.10;3.42;;;;;;;18.46;100.00;100539.63;5047683;28;20040;-85
2023/10/01 12:12:25;;;;;;;19.92;4.10;;;;;;;18.32;100.00;100544.91;5047755;28;20051;-85
2023/10/01 12:17:36;;;;;;;15.20;3.58;;;;;;;18.19;100.00;100539.44;5033707;28;20123;-90
2023/10/01 12:20:03;;;;;;;16.45;3.70;;;;;;;18.17;100.00;100544.97;5018582;28;20501;-89
2023/10/01 12:22:30;;;;;;;18.30;4.18;;;;;;;18.22;100.00;100547.91;5029888;28;20035;-90
2023/10/01 12:24:59;;;;;;;24.60;8.90;;;;;;;18.42;100.00;100555.28;5045881;28;20385;-90
2023/10/01 12:27:43;;;;;;;46.78;12.32;;;;;;;18.45;100.00;100549.53;5012632;28;20048;-86
2023/10/01 12:30:11;;;;;;;17.48;4.13;;;;;;;18.44;100.00;100545.19;5026516;28;20528;-86
2023/10/01 12:32:48;;;;;;;14.75;4.30;;;;;;;18.55;100.00;100549.19;5049352;28;20040;-85
2023/10/01 12:35:29;;;;;;;14.93;3.30;;;;;;;18.52;100.00;100551.44;5019504;28;20039;-85
2023/10/01 12:38:05;;;;;;;20.77;3.65;;;;;;;18.58;100.00;100543.47;5025183;28;20029;-85
2023/10/01 12:40:35;;;;;;;13.85;3.00;;;;;;;18.56;100.00;100547.34;5067124;28;20032;-85
2023/10/01 12:45:54;;;;;;;13.10;3.13;;;;;;;18.55;100.00;100534.97;5061790;28;20028;-85
2023/10/01 12:48:20;;;;;;;15.88;3.38;;;;;;;18.65;100.00;100535.44;5039876;28;20028;-85